createdAt,value
2018-03-02T00:01:54.108Z,98824
2018-03-02T00:04:20.112Z,98822
2018-03-02T00:06:46.144Z,98814
2018-03-02T00:09:12.163Z,98815
2018-03-02T00:11:38.152Z,98811
2018-03-02T00:14:04.159Z,98815
2018-03-02T00:16:30.185Z,98814
2018-03-02T00:18:56.266Z,98812
2018-03-02T00:21:22.287Z,98801
2018-03-02T00:23:48.336Z,98799
2018-03-02T00:26:14.348Z,98786
2018-03-02T00:28:40.399Z,98777
2018-03-02T00:31:06.387Z,98775
2018-03-02T00:33:32.396Z,98774
2018-03-02T00:35:58.440Z,98778
2018-03-02T00:38:24.448Z,98777
2018-03-02T00:40:50.477Z,98761
2018-03-02T00:43:16.503Z,98764
2018-03-02T00:45:42.525Z,98752
2018-03-02T00:48:08.699Z,98748
2018-03-02T00:50:34.706Z,98742
2018-03-02T00:53:00.712Z,98747
2018-03-02T00:55:26.755Z,98751
2018-03-02T00:57:52.755Z,98744
2018-03-02T01:00:18.799Z,98739
2018-03-02T01:02:44.800Z,98738
2018-03-02T01:05:10.817Z,98729
2018-03-02T01:07:36.875Z,98722
2018-03-02T01:10:02.893Z,98721
2018-03-02T01:12:29.001Z,98715
2018-03-02T01:14:55.015Z,98713
2018-03-02T01:17:21.048Z,98718
2018-03-02T01:19:47.065Z,98718
2018-03-02T01:22:13.118Z,98720
2018-03-02T01:24:39.135Z,98713
2018-03-02T01:27:05.168Z,98709
2018-03-02T01:29:31.187Z,98703
2018-03-02T01:31:57.189Z,98707
2018-03-02T01:34:23.196Z,98709
2018-03-02T01:36:49.201Z,98706
2018-03-02T01:39:15.247Z,98710
2018-03-02T01:41:41.243Z,98719
2018-03-02T01:44:07.272Z,98712
2018-03-02T01:46:33.271Z,98713
2018-03-02T01:48:59.310Z,98711
2018-03-02T01:51:25.301Z,98715
2018-03-02T01:53:51.365Z,98709
2018-03-02T01:56:17.408Z,98699
2018-03-02T01:58:43.463Z,98687
2018-03-02T02:01:09.492Z,98699
2018-03-02T02:03:35.499Z,98696
2018-03-02T02:06:01.538Z,98685
2018-03-02T02:08:27.541Z,98684
2018-03-02T02:10:53.587Z,98682
2018-03-02T02:13:19.587Z,98678
2018-03-02T02:15:45.611Z,98673
2018-03-02T02:18:11.655Z,98670
2018-03-02T02:20:37.688Z,98671
2018-03-02T02:23:03.681Z,98669
2018-03-02T02:25:29.701Z,98667
2018-03-02T02:27:55.707Z,98673
2018-03-02T02:30:21.711Z,98666
2018-03-02T02:32:47.738Z,98666
2018-03-02T02:35:13.731Z,98679
2018-03-02T02:37:39.765Z,98678
2018-03-02T02:40:05.767Z,98680
2018-03-02T02:42:31.792Z,98670
2018-03-02T02:44:57.880Z,98667
2018-03-02T02:47:23.940Z,98664
2018-03-02T02:49:49.968Z,98655
2018-03-02T02:52:16.003Z,98662
2018-03-02T02:54:42.003Z,98656
2018-03-02T02:57:08.000Z,98659
2018-03-02T02:59:34.023Z,98655
2018-03-02T03:02:00.152Z,98652
2018-03-02T03:04:26.176Z,98654
2018-03-02T03:06:52.173Z,98658
2018-03-02T03:09:18.212Z,98668
2018-03-02T03:11:44.217Z,98660
2018-03-02T03:14:10.416Z,98657
2018-03-02T03:16:36.410Z,98652
2018-03-02T03:19:02.434Z,98643
2018-03-02T03:21:28.435Z,98639
2018-03-02T03:23:54.457Z,98635
2018-03-02T03:26:20.516Z,98638
2018-03-02T03:28:46.512Z,98622
2018-03-02T03:31:12.528Z,98622
2018-03-02T03:33:38.550Z,98615
2018-03-02T03:36:04.581Z,98616
2018-03-02T03:38:30.576Z,98621
2018-03-02T03:40:56.588Z,98612
2018-03-02T03:43:22.683Z,98611
2018-03-02T03:45:48.738Z,98609
2018-03-02T03:48:14.738Z,98618
2018-03-02T03:50:40.751Z,98615
2018-03-02T03:53:06.780Z,98608
2018-03-02T03:55:32.806Z,98609
2018-03-02T03:57:58.839Z,98617
2018-03-02T04:00:24.847Z,98606
